logo
Search for airport 
image banner adimage banner adimage banner ad
image banner ad

ESVIND - Haellnaes

Located in Vindeln, Sweden

ICAO - ESVIND, IATA -

Data provided by Airmate  

General information

Coordinates: N64°16'10" E19°37'9"
Elevation is 574 feet MSL.
Magnetic variation is 8° East
View others Airports in Västerbottens län

Operational data

Special qualification required
Current time UTC:
Current local time:
Weather at : ESNL - Lycksele ( 53 km )
METAR: ESNL 130650Z AUTO 29003KT 180V350 9999 FEW070/// 08/03 Q1002
View NOTAMs / SUP AIP / TFR affecting this airport [VIEW]
Communications frequencies: [VIEW]

Runways:

Airport contact information

Address: Vindeln Sweden

Satellite view of ESVIND